sensor_id;sensor_type;location;lat;lon;timestamp;P1;durP1;ratioP1;P2;durP2;ratioP2
18066;SDS011;9158;51.528;7.192;2023-06-10T00:00:15;7.70;;;7.00;;
18066;SDS011;9158;51.528;7.192;2023-06-10T00:00:47;8.05;;;7.22;;
18066;SDS011;9158;51.528;7.192;2023-06-10T00:01:18;8.77;;;8.07;;
18066;SDS011;9158;51.528;7.192;2023-06-10T00:01:49;9.15;;;8.45;;
18066;SDS011;9158;51.528;7.192;2023-06-10T00:02:21;8.63;;;8.02;;
18066;SDS011;9158;51.528;7.192;2023-06-10T00:02:52;8.50;;;7.75;;
18066;SDS011;9158;51.528;7.192;2023-06-10T00:03:23;8.35;;;7.55;;
18066;SDS011;9158;51.528;7.192;2023-06-10T00:03:56;8.18;;;7.57;;
18066;SDS011;9158;51.528;7.192;2023-06-10T00:04:27;8.63;;;7.90;;
18066;SDS011;9158;51.528;7.192;2023-06-10T00:04:58;8.80;;;8.10;;
18066;SDS011;9158;51.528;7.192;2023-06-10T00:05:31;7.93;;;7.30;;
18066;SDS011;9158;51.528;7.192;2023-06-10T00:06:02;8.80;;;8.10;;
18066;SDS011;9158;51.528;7.192;2023-06-10T00:06:33;8.75;;;8.13;;
18066;SDS011;9158;51.528;7.192;2023-06-10T00:07:06;8.50;;;7.75;;
18066;SDS011;9158;51.528;7.192;2023-06-10T00:07:38;8.85;;;8.07;;
18066;SDS011;9158;51.528;7.192;2023-06-10T00:08:11;8.95;;;8.10;;
18066;SDS011;9158;51.528;7.192;2023-06-10T00:08:45;8.20;;;7.60;;
18066;SDS011;9158;51.528;7.192;2023-06-10T00:09:17;8.77;;;8.07;;
18066;SDS011;9158;51.528;7.192;2023-06-10T00:09:48;8.68;;;7.90;;
18066;SDS011;9158;51.528;7.192;2023-06-10T00:10:20;8.60;;;7.97;;
18066;SDS011;9158;51.528;7.192;2023-06-10T00:10:51;8.48;;;7.78;;
18066;SDS011;9158;51.528;7.192;2023-06-10T00:11:22;8.43;;;7.63;;
18066;SDS011;9158;51.528;7.192;2023-06-10T00:11:55;7.95;;;7.25;;
18066;SDS011;9158;51.528;7.192;2023-06-10T00:12:30;9.07;;;7.97;;
18066;SDS011;9158;51.528;7.192;2023-06-10T00:13:01;8.38;;;7.57;;
18066;SDS011;9158;51.528;7.192;2023-06-10T00:13:34;8.70;;;8.00;;
18066;SDS011;9158;51.528;7.192;2023-06-10T00:14:05;7.82;;;7.22;;
18066;SDS011;9158;51.528;7.192;2023-06-10T00:14:37;9.07;;;7.97;;
18066;SDS011;9158;51.528;7.192;2023-06-10T00:15:10;8.82;;;8.13;;
18066;SDS011;9158;51.528;7.192;2023-06-10T00:15:41;8.45;;;7.75;;
18066;SDS011;9158;51.528;7.192;2023-06-10T00:16:12;7.87;;;7.30;;
18066;SDS011;9158;51.528;7.192;2023-06-10T00:16:44;8.18;;;7.57;;
18066;SDS011;9158;51.528;7.192;2023-06-10T00:17:15;11.03;;;7.77;;
18066;SDS011;9158;51.528;7.192;2023-06-10T00:17:46;8.53;;;7.83;;
18066;SDS011;9158;51.528;7.192;2023-06-10T00:18:19;8.63;;;7.93;;
18066;SDS011;9158;51.528;7.192;2023-06-10T00:18:51;8.00;;;7.32;;
18066;SDS011;9158;51.528;7.192;2023-06-10T00:19:22;7.87;;;7.30;;
18066;SDS011;9158;51.528;7.192;2023-06-10T00:19:55;8.50;;;7.70;;
18066;SDS011;9158;51.528;7.192;2023-06-10T00:20:27;8.35;;;7.65;;
18066;SDS011;9158;51.528;7.192;2023-06-10T00:20:59;7.93;;;7.33;;
18066;SDS011;9158;51.528;7.192;2023-06-10T00:21:34;9.30;;;8.60;;
18066;SDS011;9158;51.528;7.192;2023-06-10T00:22:07;9.73;;;8.15;;
18066;SDS011;9158;51.528;7.192;2023-06-10T00:22:39;8.25;;;7.60;;
18066;SDS011;9158;51.528;7.192;2023-06-10T00:23:15;8.82;;;7.95;;
18066;SDS011;9158;51.528;7.192;2023-06-10T00:23:46;8.90;;;8.20;;
18066;SDS011;9158;51.528;7.192;2023-06-10T00:24:18;10.00;;;9.00;;
18066;SDS011;9158;51.528;7.192;2023-06-10T00:24:49;8.43;;;7.68;;
18066;SDS011;9158;51.528;7.192;2023-06-10T00:25:21;8.77;;;8.15;;
18066;SDS011;9158;51.528;7.192;2023-06-10T00:25:52;8.87;;;8.07;;
18066;SDS011;9158;51.528;7.192;2023-06-10T00:26:23;9.13;;;8.25;;
18066;SDS011;9158;51.528;7.192;2023-06-10T00:26:56;9.18;;;8.30;;
18066;SDS011;9158;51.528;7.192;2023-06-10T00:27:28;8.60;;;7.80;;
18066;SDS011;9158;51.528;7.192;2023-06-10T00:28:01;8.38;;;7.65;;
18066;SDS011;9158;51.528;7.192;2023-06-10T00:28:33;8.15;;;7.53;;
18066;SDS011;9158;51.528;7.192;2023-06-10T00:29:05;8.30;;;7.60;;
18066;SDS011;9158;51.528;7.192;2023-06-10T00:29:36;8.60;;;7.90;;
18066;SDS011;9158;51.528;7.192;2023-06-10T00:30:09;8.80;;;7.95;;
18066;SDS011;9158;51.528;7.192;2023-06-10T00:30:42;9.10;;;8.02;;
18066;SDS011;9158;51.528;7.192;2023-06-10T00:31:14;8.10;;;7.43;;
18066;SDS011;9158;51.528;7.192;2023-06-10T00:31:45;9.00;;;8.10;;
18066;SDS011;9158;51.528;7.192;2023-06-10T00:32:17;8.45;;;7.85;;
18066;SDS011;9158;51.528;7.192;2023-06-10T00:32:48;8.93;;;8.13;;
18066;SDS011;9158;51.528;7.192;2023-06-10T00:33:19;8.20;;;7.40;;
18066;SDS011;9158;51.528;7.192;2023-06-10T00:33:50;8.77;;;8.13;;
18066;SDS011;9158;51.528;7.192;2023-06-10T00:34:22;9.40;;;8.65;;
18066;SDS011;9158;51.528;7.192;2023-06-10T00:34:53;8.10;;;7.40;;
18066;SDS011;9158;51.528;7.192;2023-06-10T00:35:24;8.23;;;7.53;;
18066;SDS011;9158;51.528;7.192;2023-06-10T00:35:56;8.40;;;7.80;;
18066;SDS011;9158;51.528;7.192;2023-06-10T00:36:29;7.85;;;7.25;;
18066;SDS011;9158;51.528;7.192;2023-06-10T00:37:00;10.10;;;9.30;;
18066;SDS011;9158;51.528;7.192;2023-06-10T00:37:32;8.30;;;7.50;;
18066;SDS011;9158;51.528;7.192;2023-06-10T00:38:05;9.38;;;8.52;;
18066;SDS011;9158;51.528;7.192;2023-06-10T00:38:36;8.30;;;7.60;;
18066;SDS011;9158;51.528;7.192;2023-06-10T00:39:08;8.07;;;7.40;;
18066;SDS011;9158;51.528;7.192;2023-06-10T00:39:40;8.38;;;7.70;;
18066;SDS011;9158;51.528;7.192;2023-06-10T00:40:12;9.43;;;8.33;;
18066;SDS011;9158;51.528;7.192;2023-06-10T00:40:44;8.93;;;8.23;;
18066;SDS011;9158;51.528;7.192;2023-06-10T00:41:15;9.27;;;8.40;;
18066;SDS011;9158;51.528;7.192;2023-06-10T00:41:46;10.98;;;9.10;;
18066;SDS011;9158;51.528;7.192;2023-06-10T00:42:17;8.82;;;7.93;;
18066;SDS011;9158;51.528;7.192;2023-06-10T00:42:49;9.57;;;8.10;;
18066;SDS011;9158;51.528;7.192;2023-06-10T00:43:20;7.97;;;7.33;;
18066;SDS011;9158;51.528;7.192;2023-06-10T00:43:52;8.38;;;7.68;;
18066;SDS011;9158;51.528;7.192;2023-06-10T00:44:23;8.63;;;8.03;;
18066;SDS011;9158;51.528;7.192;2023-06-10T00:44:54;9.10;;;8.40;;
18066;SDS011;9158;51.528;7.192;2023-06-10T00:45:26;8.52;;;7.93;;
18066;SDS011;9158;51.528;7.192;2023-06-10T00:45:57;8.45;;;7.85;;
18066;SDS011;9158;51.528;7.192;2023-06-10T00:46:28;8.60;;;7.90;;
18066;SDS011;9158;51.528;7.192;2023-06-10T00:47:02;9.88;;;8.88;;
18066;SDS011;9158;51.528;7.192;2023-06-10T00:47:34;9.95;;;8.95;;
18066;SDS011;9158;51.528;7.192;2023-06-10T00:48:07;8.73;;;8.02;;
18066;SDS011;9158;51.528;7.192;2023-06-10T00:48:38;8.80;;;8.10;;
18066;SDS011;9158;51.528;7.192;2023-06-10T00:49:13;9.20;;;8.30;;
18066;SDS011;9158;51.528;7.192;2023-06-10T00:49:44;9.20;;;8.40;;
18066;SDS011;9158;51.528;7.192;2023-06-10T00:50:16;9.25;;;8.35;;
18066;SDS011;9158;51.528;7.192;2023-06-10T00:50:48;9.50;;;8.57;;
18066;SDS011;9158;51.528;7.192;2023-06-10T00:51:20;9.50;;;8.60;;
18066;SDS011;9158;51.528;7.192;2023-06-10T00:51:53;9.95;;;9.00;;
18066;SDS011;9158;51.528;7.192;2023-06-10T00:52:27;10.15;;;9.02;;
18066;SDS011;9158;51.528;7.192;2023-06-10T00:52:58;10.48;;;9.05;;
18066;SDS011;9158;51.528;7.192;2023-06-10T00:53:30;10.35;;;9.35;;
18066;SDS011;9158;51.528;7.192;2023-06-10T00:54:03;9.60;;;8.68;;
18066;SDS011;9158;51.528;7.192;2023-06-10T00:54:34;10.13;;;9.18;;
18066;SDS011;9158;51.528;7.192;2023-06-10T00:55:06;9.30;;;8.60;;
18066;SDS011;9158;51.528;7.192;2023-06-10T00:55:38;9.93;;;9.10;;
18066;SDS011;9158;51.528;7.192;2023-06-10T00:56:13;10.50;;;8.68;;
18066;SDS011;9158;51.528;7.192;2023-06-10T00:56:45;9.40;;;8.70;;
18066;SDS011;9158;51.528;7.192;2023-06-10T00:57:17;9.90;;;9.00;;
18066;SDS011;9158;51.528;7.192;2023-06-10T00:57:48;9.60;;;8.90;;
18066;SDS011;9158;51.528;7.192;2023-06-10T00:58:22;10.80;;;9.90;;
18066;SDS011;9158;51.528;7.192;2023-06-10T00:58:54;10.38;;;9.45;;
18066;SDS011;9158;51.528;7.192;2023-06-10T00:59:25;10.80;;;9.80;;
18066;SDS011;9158;51.528;7.192;2023-06-10T00:59:56;10.25;;;9.05;;
18066;SDS011;9158;51.528;7.192;2023-06-10T01:00:27;10.32;;;9.35;;
18066;SDS011;9158;51.528;7.192;2023-06-10T01:00:59;11.35;;;9.65;;
18066;SDS011;9158;51.528;7.192;2023-06-10T01:01:32;10.18;;;9.18;;
18066;SDS011;9158;51.528;7.192;2023-06-10T01:02:06;9.27;;;8.57;;
18066;SDS011;9158;51.528;7.192;2023-06-10T01:02:39;9.32;;;8.40;;
18066;SDS011;9158;51.528;7.192;2023-06-10T01:03:10;10.17;;;9.10;;
18066;SDS011;9158;51.528;7.192;2023-06-10T01:03:42;11.57;;;9.75;;
18066;SDS011;9158;51.528;7.192;2023-06-10T01:04:15;13.50;;;9.23;;
18066;SDS011;9158;51.528;7.192;2023-06-10T01:04:49;10.05;;;9.15;;
18066;SDS011;9158;51.528;7.192;2023-06-10T01:05:23;10.27;;;9.27;;
18066;SDS011;9158;51.528;7.192;2023-06-10T01:05:57;10.55;;;9.65;;
18066;SDS011;9158;51.528;7.192;2023-06-10T01:06:46;10.05;;;9.15;;
18066;SDS011;9158;51.528;7.192;2023-06-10T01:07:28;10.57;;;9.57;;
18066;SDS011;9158;51.528;7.192;2023-06-10T01:08:07;9.30;;;8.50;;
18066;SDS011;9158;51.528;7.192;2023-06-10T01:08:45;10.57;;;9.57;;
18066;SDS011;9158;51.528;7.192;2023-06-10T01:09:21;9.98;;;8.98;;
18066;SDS011;9158;51.528;7.192;2023-06-10T01:10:01;10.55;;;9.45;;
18066;SDS011;9158;51.528;7.192;2023-06-10T01:10:36;9.35;;;8.57;;
18066;SDS011;9158;51.528;7.192;2023-06-10T01:11:13;9.38;;;8.68;;
18066;SDS011;9158;51.528;7.192;2023-06-10T01:11:49;11.32;;;10.32;;
18066;SDS011;9158;51.528;7.192;2023-06-10T01:12:29;10.80;;;9.75;;
18066;SDS011;9158;51.528;7.192;2023-06-10T01:13:03;10.13;;;9.32;;
18066;SDS011;9158;51.528;7.192;2023-06-10T01:13:38;10.82;;;9.93;;
18066;SDS011;9158;51.528;7.192;2023-06-10T01:14:11;9.90;;;9.10;;
18066;SDS011;9158;51.528;7.192;2023-06-10T01:14:44;9.98;;;9.07;;
18066;SDS011;9158;51.528;7.192;2023-06-10T01:15:16;11.57;;;9.38;;
18066;SDS011;9158;51.528;7.192;2023-06-10T01:15:49;10.60;;;9.57;;
18066;SDS011;9158;51.528;7.192;2023-06-10T01:16:22;10.77;;;9.88;;
18066;SDS011;9158;51.528;7.192;2023-06-10T01:16:55;11.40;;;10.50;;
18066;SDS011;9158;51.528;7.192;2023-06-10T01:17:27;10.68;;;9.70;;
18066;SDS011;9158;51.528;7.192;2023-06-10T01:18:01;10.55;;;9.63;;
18066;SDS011;9158;51.528;7.192;2023-06-10T01:18:34;10.70;;;9.70;;
18066;SDS011;9158;51.528;7.192;2023-06-10T01:19:06;11.40;;;10.30;;
18066;SDS011;9158;51.528;7.192;2023-06-10T01:19:37;10.30;;;9.48;;
18066;SDS011;9158;51.528;7.192;2023-06-10T01:20:09;14.10;;;10.50;;
18066;SDS011;9158;51.528;7.192;2023-06-10T01:20:43;10.40;;;9.50;;
18066;SDS011;9158;51.528;7.192;2023-06-10T01:21:19;12.50;;;11.20;;
18066;SDS011;9158;51.528;7.192;2023-06-10T01:21:51;10.50;;;9.70;;
18066;SDS011;9158;51.528;7.192;2023-06-10T01:22:25;12.55;;;10.35;;
18066;SDS011;9158;51.528;7.192;2023-06-10T01:22:58;10.48;;;9.57;;
18066;SDS011;9158;51.528;7.192;2023-06-10T01:23:30;11.45;;;10.35;;
18066;SDS011;9158;51.528;7.192;2023-06-10T01:24:02;11.45;;;10.38;;
18066;SDS011;9158;51.528;7.192;2023-06-10T01:24:34;12.10;;;10.80;;
18066;SDS011;9158;51.528;7.192;2023-06-10T01:25:06;11.07;;;10.18;;
18066;SDS011;9158;51.528;7.192;2023-06-10T01:25:38;10.98;;;9.93;;
18066;SDS011;9158;51.528;7.192;2023-06-10T01:26:12;10.73;;;9.73;;
18066;SDS011;9158;51.528;7.192;2023-06-10T01:26:45;16.67;;;9.93;;
18066;SDS011;9158;51.528;7.192;2023-06-10T01:27:24;12.32;;;11.15;;
18066;SDS011;9158;51.528;7.192;2023-06-10T01:28:02;11.38;;;10.50;;
18066;SDS011;9158;51.528;7.192;2023-06-10T01:28:38;10.50;;;9.63;;
18066;SDS011;9158;51.528;7.192;2023-06-10T01:29:17;10.73;;;9.73;;
18066;SDS011;9158;51.528;7.192;2023-06-10T01:29:50;11.93;;;10.73;;
18066;SDS011;9158;51.528;7.192;2023-06-10T01:30:30;12.55;;;11.25;;
18066;SDS011;9158;51.528;7.192;2023-06-10T01:31:09;13.02;;;11.93;;
18066;SDS011;9158;51.528;7.192;2023-06-10T01:31:47;13.10;;;11.30;;
18066;SDS011;9158;51.528;7.192;2023-06-10T01:32:26;11.13;;;10.20;;
18066;SDS011;9158;51.528;7.192;2023-06-10T01:33:02;12.15;;;11.13;;
18066;SDS011;9158;51.528;7.192;2023-06-10T01:33:39;12.80;;;11.80;;
18066;SDS011;9158;51.528;7.192;2023-06-10T01:34:14;13.02;;;11.93;;
18066;SDS011;9158;51.528;7.192;2023-06-10T01:34:48;12.80;;;11.73;;
18066;SDS011;9158;51.528;7.192;2023-06-10T01:35:20;12.57;;;11.48;;
18066;SDS011;9158;51.528;7.192;2023-06-10T01:35:55;13.45;;;12.25;;
18066;SDS011;9158;51.528;7.192;2023-06-10T01:36:29;12.30;;;11.30;;
18066;SDS011;9158;51.528;7.192;2023-06-10T01:37:00;12.75;;;11.45;;
18066;SDS011;9158;51.528;7.192;2023-06-10T01:37:35;12.48;;;11.45;;
18066;SDS011;9158;51.528;7.192;2023-06-10T01:38:08;12.48;;;11.27;;
18066;SDS011;9158;51.528;7.192;2023-06-10T01:38:42;13.55;;;12.45;;
18066;SDS011;9158;51.528;7.192;2023-06-10T01:39:15;13.20;;;11.77;;
18066;SDS011;9158;51.528;7.192;2023-06-10T01:39:48;12.70;;;11.70;;
18066;SDS011;9158;51.528;7.192;2023-06-10T01:40:19;13.10;;;11.90;;
18066;SDS011;9158;51.528;7.192;2023-06-10T01:40:51;12.80;;;11.75;;
18066;SDS011;9158;51.528;7.192;2023-06-10T01:41:24;13.23;;;12.10;;
18066;SDS011;9158;51.528;7.192;2023-06-10T01:41:56;12.70;;;11.60;;
18066;SDS011;9158;51.528;7.192;2023-06-10T01:42:27;12.60;;;11.50;;
18066;SDS011;9158;51.528;7.192;2023-06-10T01:43:01;12.90;;;11.70;;
18066;SDS011;9158;51.528;7.192;2023-06-10T01:43:32;12.98;;;11.75;;
18066;SDS011;9158;51.528;7.192;2023-06-10T01:44:04;12.05;;;10.95;;
18066;SDS011;9158;51.528;7.192;2023-06-10T01:44:36;11.98;;;10.90;;
18066;SDS011;9158;51.528;7.192;2023-06-10T01:45:09;13.60;;;12.45;;
18066;SDS011;9158;51.528;7.192;2023-06-10T01:45:40;13.10;;;12.00;;
18066;SDS011;9158;51.528;7.192;2023-06-10T01:46:12;12.75;;;11.55;;
18066;SDS011;9158;51.528;7.192;2023-06-10T01:46:43;12.10;;;11.00;;
18066;SDS011;9158;51.528;7.192;2023-06-10T01:47:15;12.40;;;11.27;;
18066;SDS011;9158;51.528;7.192;2023-06-10T01:47:48;13.68;;;12.35;;
18066;SDS011;9158;51.528;7.192;2023-06-10T01:48:18;12.57;;;11.50;;
18066;SDS011;9158;51.528;7.192;2023-06-10T01:48:50;12.23;;;11.23;;
18066;SDS011;9158;51.528;7.192;2023-06-10T01:49:21;12.50;;;11.48;;
18066;SDS011;9158;51.528;7.192;2023-06-10T01:49:54;13.20;;;12.07;;
18066;SDS011;9158;51.528;7.192;2023-06-10T01:50:25;11.70;;;10.70;;
18066;SDS011;9158;51.528;7.192;2023-06-10T01:50:56;12.23;;;11.23;;
18066;SDS011;9158;51.528;7.192;2023-06-10T01:51:29;12.95;;;11.65;;
18066;SDS011;9158;51.528;7.192;2023-06-10T01:52:01;13.38;;;12.07;;
18066;SDS011;9158;51.528;7.192;2023-06-10T01:52:33;12.68;;;11.68;;
18066;SDS011;9158;51.528;7.192;2023-06-10T01:53:05;12.23;;;11.02;;
18066;SDS011;9158;51.528;7.192;2023-06-10T01:53:36;13.20;;;12.00;;
18066;SDS011;9158;51.528;7.192;2023-06-10T01:54:07;13.20;;;12.20;;
18066;SDS011;9158;51.528;7.192;2023-06-10T01:54:39;12.27;;;11.23;;
18066;SDS011;9158;51.528;7.192;2023-06-10T01:55:10;13.17;;;11.93;;
18066;SDS011;9158;51.528;7.192;2023-06-10T01:55:40;12.87;;;11.70;;
18066;SDS011;9158;51.528;7.192;2023-06-10T01:56:12;13.00;;;11.80;;
18066;SDS011;9158;51.528;7.192;2023-06-10T01:56:47;12.60;;;11.40;;
18066;SDS011;9158;51.528;7.192;2023-06-10T01:57:18;13.30;;;12.30;;
18066;SDS011;9158;51.528;7.192;2023-06-10T01:57:50;13.20;;;12.20;;
18066;SDS011;9158;51.528;7.192;2023-06-10T01:58:22;13.80;;;12.55;;
18066;SDS011;9158;51.528;7.192;2023-06-10T01:58:53;11.83;;;10.93;;
18066;SDS011;9158;51.528;7.192;2023-06-10T01:59:29;12.90;;;11.80;;
18066;SDS011;9158;51.528;7.192;2023-06-10T02:00:00;12.77;;;11.77;;
18066;SDS011;9158;51.528;7.192;2023-06-10T02:00:31;12.37;;;11.40;;
18066;SDS011;9158;51.528;7.192;2023-06-10T02:01:03;11.45;;;10.55;;
18066;SDS011;9158;51.528;7.192;2023-06-10T02:01:33;13.27;;;12.10;;
18066;SDS011;9158;51.528;7.192;2023-06-10T02:02:04;13.00;;;11.87;;
18066;SDS011;9158;51.528;7.192;2023-06-10T02:02:36;12.70;;;11.60;;
18066;SDS011;9158;51.528;7.192;2023-06-10T02:03:08;12.90;;;11.80;;
18066;SDS011;9158;51.528;7.192;2023-06-10T02:03:39;13.48;;;12.45;;
18066;SDS011;9158;51.528;7.192;2023-06-10T02:04:11;13.52;;;12.48;;
18066;SDS011;9158;51.528;7.192;2023-06-10T02:04:43;12.85;;;11.85;;
18066;SDS011;9158;51.528;7.192;2023-06-10T02:05:14;14.00;;;12.80;;
18066;SDS011;9158;51.528;7.192;2023-06-10T02:05:46;11.95;;;11.05;;
18066;SDS011;9158;51.528;7.192;2023-06-10T02:06:20;13.00;;;11.80;;
18066;SDS011;9158;51.528;7.192;2023-06-10T02:06:52;13.07;;;11.87;;
18066;SDS011;9158;51.528;7.192;2023-06-10T02:07:23;15.20;;;12.82;;
18066;SDS011;9158;51.528;7.192;2023-06-10T02:07:55;13.63;;;12.50;;
18066;SDS011;9158;51.528;7.192;2023-06-10T02:08:26;12.80;;;11.67;;
18066;SDS011;9158;51.528;7.192;2023-06-10T02:08:57;14.32;;;11.90;;
18066;SDS011;9158;51.528;7.192;2023-06-10T02:09:28;13.40;;;11.83;;
18066;SDS011;9158;51.528;7.192;2023-06-10T02:10:01;12.55;;;11.35;;
18066;SDS011;9158;51.528;7.192;2023-06-10T02:10:33;13.73;;;12.48;;
18066;SDS011;9158;51.528;7.192;2023-06-10T02:11:04;13.03;;;11.80;;
18066;SDS011;9158;51.528;7.192;2023-06-10T02:11:37;13.73;;;12.52;;
18066;SDS011;9158;51.528;7.192;2023-06-10T02:12:08;13.97;;;12.10;;
18066;SDS011;9158;51.528;7.192;2023-06-10T02:12:40;14.02;;;12.88;;
18066;SDS011;9158;51.528;7.192;2023-06-10T02:13:12;13.93;;;12.90;;
18066;SDS011;9158;51.528;7.192;2023-06-10T02:13:43;13.10;;;11.90;;
18066;SDS011;9158;51.528;7.192;2023-06-10T02:14:14;13.13;;;12.03;;
18066;SDS011;9158;51.528;7.192;2023-06-10T02:14:46;13.85;;;12.00;;
18066;SDS011;9158;51.528;7.192;2023-06-10T02:15:17;12.70;;;11.70;;
18066;SDS011;9158;51.528;7.192;2023-06-10T02:15:50;15.25;;;12.38;;
18066;SDS011;9158;51.528;7.192;2023-06-10T02:16:23;13.23;;;12.05;;
18066;SDS011;9158;51.528;7.192;2023-06-10T02:16:56;14.73;;;13.52;;
18066;SDS011;9158;51.528;7.192;2023-06-10T02:17:27;14.30;;;13.13;;
18066;SDS011;9158;51.528;7.192;2023-06-10T02:18:00;13.70;;;12.60;;
18066;SDS011;9158;51.528;7.192;2023-06-10T02:18:32;13.52;;;12.23;;
18066;SDS011;9158;51.528;7.192;2023-06-10T02:19:04;13.15;;;12.15;;
18066;SDS011;9158;51.528;7.192;2023-06-10T02:19:36;12.88;;;11.98;;
18066;SDS011;9158;51.528;7.192;2023-06-10T02:20:13;13.77;;;12.32;;
18066;SDS011;9158;51.528;7.192;2023-06-10T02:20:44;13.82;;;12.52;;
18066;SDS011;9158;51.528;7.192;2023-06-10T02:21:15;13.60;;;12.50;;
18066;SDS011;9158;51.528;7.192;2023-06-10T02:21:47;14.48;;;13.10;;
18066;SDS011;9158;51.528;7.192;2023-06-10T02:22:21;15.02;;;13.45;;
18066;SDS011;9158;51.528;7.192;2023-06-10T02:22:52;13.50;;;12.25;;
18066;SDS011;9158;51.528;7.192;2023-06-10T02:23:24;14.02;;;12.82;;
18066;SDS011;9158;51.528;7.192;2023-06-10T02:23:55;14.13;;;13.03;;
18066;SDS011;9158;51.528;7.192;2023-06-10T02:24:26;14.13;;;12.90;;
18066;SDS011;9158;51.528;7.192;2023-06-10T02:24:57;14.15;;;12.98;;
18066;SDS011;9158;51.528;7.192;2023-06-10T02:25:28;13.23;;;12.23;;
18066;SDS011;9158;51.528;7.192;2023-06-10T02:26:01;13.60;;;12.30;;
18066;SDS011;9158;51.528;7.192;2023-06-10T02:26:33;14.27;;;13.05;;
18066;SDS011;9158;51.528;7.192;2023-06-10T02:27:04;14.63;;;13.35;;
18066;SDS011;9158;51.528;7.192;2023-06-10T02:27:37;14.23;;;12.93;;
18066;SDS011;9158;51.528;7.192;2023-06-10T02:28:09;13.98;;;12.80;;
18066;SDS011;9158;51.528;7.192;2023-06-10T02:28:42;13.88;;;12.70;;
18066;SDS011;9158;51.528;7.192;2023-06-10T02:29:13;13.32;;;12.18;;
18066;SDS011;9158;51.528;7.192;2023-06-10T02:29:44;12.35;;;11.35;;
18066;SDS011;9158;51.528;7.192;2023-06-10T02:30:16;13.23;;;12.00;;
18066;SDS011;9158;51.528;7.192;2023-06-10T02:30:47;13.87;;;12.63;;
18066;SDS011;9158;51.528;7.192;2023-06-10T02:31:18;13.73;;;12.43;;
18066;SDS011;9158;51.528;7.192;2023-06-10T02:31:49;13.50;;;12.50;;
18066;SDS011;9158;51.528;7.192;2023-06-10T02:32:23;14.00;;;12.95;;
18066;SDS011;9158;51.528;7.192;2023-06-10T02:32:55;14.75;;;13.35;;
18066;SDS011;9158;51.528;7.192;2023-06-10T02:33:29;15.25;;;13.90;;
18066;SDS011;9158;51.528;7.192;2023-06-10T02:34:01;13.93;;;12.93;;
18066;SDS011;9158;51.528;7.192;2023-06-10T02:34:34;14.48;;;13.27;;
18066;SDS011;9158;51.528;7.192;2023-06-10T02:35:07;13.60;;;12.40;;
18066;SDS011;9158;51.528;7.192;2023-06-10T02:35:43;14.48;;;13.18;;
18066;SDS011;9158;51.528;7.192;2023-06-10T02:36:14;14.05;;;12.85;;
18066;SDS011;9158;51.528;7.192;2023-06-10T02:36:45;13.02;;;12.00;;
18066;SDS011;9158;51.528;7.192;2023-06-10T02:37:20;13.65;;;12.68;;
18066;SDS011;9158;51.528;7.192;2023-06-10T02:37:51;13.52;;;12.48;;
18066;SDS011;9158;51.528;7.192;2023-06-10T02:38:23;14.80;;;13.70;;
18066;SDS011;9158;51.528;7.192;2023-06-10T02:38:55;15.23;;;13.55;;
18066;SDS011;9158;51.528;7.192;2023-06-10T02:39:27;15.23;;;13.82;;
18066;SDS011;9158;51.528;7.192;2023-06-10T02:39:58;15.07;;;13.55;;
18066;SDS011;9158;51.528;7.192;2023-06-10T02:40:30;14.85;;;13.35;;
18066;SDS011;9158;51.528;7.192;2023-06-10T02:41:02;15.02;;;13.60;;
18066;SDS011;9158;51.528;7.192;2023-06-10T02:41:33;14.90;;;13.70;;
18066;SDS011;9158;51.528;7.192;2023-06-10T02:42:06;14.32;;;13.00;;
18066;SDS011;9158;51.528;7.192;2023-06-10T02:42:38;13.95;;;12.75;;
18066;SDS011;9158;51.528;7.192;2023-06-10T02:43:09;15.10;;;13.65;;
18066;SDS011;9158;51.528;7.192;2023-06-10T02:43:40;14.68;;;13.48;;
18066;SDS011;9158;51.528;7.192;2023-06-10T02:44:12;14.98;;;13.63;;
18066;SDS011;9158;51.528;7.192;2023-06-10T02:44:43;14.82;;;13.55;;
18066;SDS011;9158;51.528;7.192;2023-06-10T02:45:18;14.00;;;12.88;;
18066;SDS011;9158;51.528;7.192;2023-06-10T02:45:51;15.50;;;13.90;;
18066;SDS011;9158;51.528;7.192;2023-06-10T02:46:22;13.85;;;12.75;;
18066;SDS011;9158;51.528;7.192;2023-06-10T02:46:53;13.63;;;12.53;;
18066;SDS011;9158;51.528;7.192;2023-06-10T02:47:25;13.73;;;12.50;;
18066;SDS011;9158;51.528;7.192;2023-06-10T02:47:56;14.73;;;13.43;;
18066;SDS011;9158;51.528;7.192;2023-06-10T02:48:27;14.40;;;12.80;;
18066;SDS011;9158;51.528;7.192;2023-06-10T02:48:59;15.05;;;13.75;;
18066;SDS011;9158;51.528;7.192;2023-06-10T02:49:31;14.88;;;13.68;;
18066;SDS011;9158;51.528;7.192;2023-06-10T02:50:03;14.10;;;12.82;;
18066;SDS011;9158;51.528;7.192;2023-06-10T02:50:39;13.85;;;12.68;;
18066;SDS011;9158;51.528;7.192;2023-06-10T02:51:21;14.38;;;13.13;;
18066;SDS011;9158;51.528;7.192;2023-06-10T02:51:55;15.15;;;13.75;;
18066;SDS011;9158;51.528;7.192;2023-06-10T02:52:28;14.15;;;13.00;;
18066;SDS011;9158;51.528;7.192;2023-06-10T02:53:01;13.18;;;12.05;;
18066;SDS011;9158;51.528;7.192;2023-06-10T02:53:32;14.93;;;13.63;;
18066;SDS011;9158;51.528;7.192;2023-06-10T02:54:09;14.48;;;13.27;;
18066;SDS011;9158;51.528;7.192;2023-06-10T02:54:41;13.43;;;12.15;;
18066;SDS011;9158;51.528;7.192;2023-06-10T02:55:13;13.50;;;12.40;;
18066;SDS011;9158;51.528;7.192;2023-06-10T02:55:49;13.20;;;12.00;;
18066;SDS011;9158;51.528;7.192;2023-06-10T02:56:23;14.40;;;13.02;;
18066;SDS011;9158;51.528;7.192;2023-06-10T02:56:54;14.15;;;13.05;;
18066;SDS011;9158;51.528;7.192;2023-06-10T02:57:28;14.52;;;13.27;;
18066;SDS011;9158;51.528;7.192;2023-06-10T02:58:00;13.77;;;12.68;;
18066;SDS011;9158;51.528;7.192;2023-06-10T02:58:31;14.98;;;13.77;;
18066;SDS011;9158;51.528;7.192;2023-06-10T02:59:02;13.87;;;12.50;;
18066;SDS011;9158;51.528;7.192;2023-06-10T02:59:37;14.70;;;13.23;;
18066;SDS011;9158;51.528;7.192;2023-06-10T03:00:09;14.07;;;12.77;;
18066;SDS011;9158;51.528;7.192;2023-06-10T03:00:42;13.88;;;12.77;;
18066;SDS011;9158;51.528;7.192;2023-06-10T03:01:14;15.95;;;13.35;;
18066;SDS011;9158;51.528;7.192;2023-06-10T03:01:57;14.77;;;13.32;;
18066;SDS011;9158;51.528;7.192;2023-06-10T03:02:31;15.07;;;13.68;;
18066;SDS011;9158;51.528;7.192;2023-06-10T03:03:02;14.87;;;13.40;;
18066;SDS011;9158;51.528;7.192;2023-06-10T03:03:41;14.38;;;13.10;;
18066;SDS011;9158;51.528;7.192;2023-06-10T03:04:15;14.35;;;13.00;;
18066;SDS011;9158;51.528;7.192;2023-06-10T03:04:54;14.00;;;13.00;;
18066;SDS011;9158;51.528;7.192;2023-06-10T03:05:26;14.73;;;13.25;;
18066;SDS011;9158;51.528;7.192;2023-06-10T03:05:59;13.93;;;12.73;;
18066;SDS011;9158;51.528;7.192;2023-06-10T03:06:31;14.27;;;13.07;;
18066;SDS011;9158;51.528;7.192;2023-06-10T03:07:13;14.38;;;13.07;;
18066;SDS011;9158;51.528;7.192;2023-06-10T03:07:46;13.98;;;12.68;;
18066;SDS011;9158;51.528;7.192;2023-06-10T03:08:17;14.52;;;13.25;;
18066;SDS011;9158;51.528;7.192;2023-06-10T03:08:49;14.07;;;12.90;;
18066;SDS011;9158;51.528;7.192;2023-06-10T03:09:23;14.20;;;13.02;;
18066;SDS011;9158;51.528;7.192;2023-06-10T03:09:57;14.43;;;13.35;;
18066;SDS011;9158;51.528;7.192;2023-06-10T03:10:30;14.65;;;13.45;;
18066;SDS011;9158;51.528;7.192;2023-06-10T03:11:03;14.00;;;12.70;;
18066;SDS011;9158;51.528;7.192;2023-06-10T03:11:35;13.00;;;12.00;;
18066;SDS011;9158;51.528;7.192;2023-06-10T03:12:08;13.32;;;12.18;;
18066;SDS011;9158;51.528;7.192;2023-06-10T03:12:44;12.90;;;11.68;;
18066;SDS011;9158;51.528;7.192;2023-06-10T03:13:16;15.13;;;13.68;;
18066;SDS011;9158;51.528;7.192;2023-06-10T03:13:48;13.40;;;12.15;;
18066;SDS011;9158;51.528;7.192;2023-06-10T03:14:22;14.27;;;12.98;;
18066;SDS011;9158;51.528;7.192;2023-06-10T03:14:55;13.93;;;12.57;;
18066;SDS011;9158;51.528;7.192;2023-06-10T03:15:26;14.37;;;13.03;;
18066;SDS011;9158;51.528;7.192;2023-06-10T03:15:59;13.85;;;12.70;;